createdAt,value
2018-03-21T00:01:25.201Z,1.38
2018-03-21T00:03:51.593Z,1.33
2018-03-21T00:06:17.825Z,1.31
2018-03-21T00:08:44.154Z,1.21
2018-03-21T00:11:10.424Z,1.17
2018-03-21T00:13:36.672Z,1.09
2018-03-21T00:16:03.221Z,1.09
2018-03-21T00:18:29.469Z,1.06
2018-03-21T00:20:55.775Z,1.09
2018-03-21T00:23:22.049Z,1.11
2018-03-21T00:25:48.334Z,1.07
2018-03-21T00:28:14.805Z,1.09
2018-03-21T00:30:41.071Z,1.12
2018-03-21T00:33:07.335Z,1.15
2018-03-21T00:35:33.696Z,1.18
2018-03-21T00:38:00.049Z,1.13
2018-03-21T00:40:26.406Z,1.11
2018-03-21T00:42:52.687Z,1.07
2018-03-21T00:45:18.933Z,1.03
2018-03-21T00:47:45.476Z,0.97
2018-03-21T00:50:11.726Z,0.95
2018-03-21T00:52:38.113Z,0.90
2018-03-21T00:55:04.420Z,0.79
2018-03-21T00:57:30.680Z,0.74
2018-03-21T00:59:57.304Z,0.68
2018-03-21T01:02:23.544Z,0.63
2018-03-21T01:04:49.858Z,0.55
2018-03-21T01:07:16.138Z,0.41
2018-03-21T01:09:42.420Z,0.36
2018-03-21T01:12:08.837Z,0.37
2018-03-21T01:14:35.103Z,0.37
2018-03-21T01:17:01.355Z,0.29
2018-03-21T01:19:27.589Z,0.32
2018-03-21T01:21:53.852Z,0.33
2018-03-21T01:24:20.119Z,0.36
2018-03-21T01:26:46.360Z,0.37
2018-03-21T01:29:12.609Z,0.35
2018-03-21T01:31:38.870Z,0.34
2018-03-21T01:34:05.116Z,0.30
2018-03-21T01:36:31.396Z,0.23
2018-03-21T01:38:57.694Z,0.22
2018-03-21T01:41:23.936Z,0.17
2018-03-21T01:43:50.211Z,0.18
2018-03-21T01:46:16.524Z,0.09
2018-03-21T01:48:42.829Z,0.12
2018-03-21T01:51:09.063Z,0.19
2018-03-21T01:53:35.329Z,0.19
2018-03-21T01:56:01.555Z,0.18
2018-03-21T01:58:27.787Z,0.12
2018-03-21T02:00:54.051Z,0.12
2018-03-21T02:03:20.316Z,0.09
2018-03-21T02:05:46.580Z,0.04
2018-03-21T02:08:12.820Z,0.05
2018-03-21T02:10:39.120Z,0.04
2018-03-21T02:13:05.507Z,0.07
2018-03-21T02:15:31.765Z,0.00
2018-03-21T02:17:58.004Z,0.00
2018-03-21T02:20:24.508Z,0.01
2018-03-21T02:22:50.757Z,0.06
2018-03-21T02:25:17.011Z,0.05
2018-03-21T02:27:43.270Z,0.10
2018-03-21T02:30:09.534Z,0.08
2018-03-21T02:32:35.922Z,0.06
2018-03-21T02:35:02.202Z,0.11
2018-03-21T02:37:28.602Z,0.12
2018-03-21T02:39:54.856Z,0.09
2018-03-21T02:42:21.172Z,0.08
2018-03-21T02:44:47.718Z,0.14
2018-03-21T02:47:13.954Z,0.08
2018-03-21T02:49:40.203Z,-0.01
2018-03-21T02:52:06.451Z,0.00
2018-03-21T02:54:32.748Z,0.03
2018-03-21T02:56:58.982Z,0.02
2018-03-21T02:59:25.303Z,0.02
2018-03-21T03:01:51.527Z,0.05
2018-03-21T03:04:17.779Z,0.12
2018-03-21T03:06:44.007Z,0.18
2018-03-21T03:09:10.247Z,0.18
2018-03-21T03:11:36.513Z,0.20
2018-03-21T03:14:02.760Z,0.25
2018-03-21T03:16:29.016Z,0.14
2018-03-21T03:18:55.256Z,0.16
2018-03-21T03:21:21.503Z,0.11
2018-03-21T03:23:47.747Z,0.10
2018-03-21T03:26:13.996Z,0.09
2018-03-21T03:28:40.260Z,-0.01
2018-03-21T03:31:06.502Z,-0.02
2018-03-21T03:33:32.732Z,-0.13
2018-03-21T03:35:58.978Z,-0.16
2018-03-21T03:38:25.219Z,-0.21
2018-03-21T03:40:51.544Z,-0.16
2018-03-21T03:43:17.777Z,-0.21
2018-03-21T03:45:44.007Z,-0.30
2018-03-21T03:48:10.270Z,-0.39
2018-03-21T03:50:36.517Z,-0.45
2018-03-21T03:53:02.787Z,-0.45
2018-03-21T03:55:29.015Z,-0.49
2018-03-21T03:57:55.248Z,-0.53
2018-03-21T04:00:21.497Z,-0.55
2018-03-21T04:02:47.733Z,-0.56
2018-03-21T04:05:13.993Z,-0.58
2018-03-21T04:07:40.232Z,-0.57
2018-03-21T04:10:06.521Z,-0.51
2018-03-21T04:12:32.775Z,-0.50
2018-03-21T04:14:58.999Z,-0.44
2018-03-21T04:17:25.264Z,-0.40
2018-03-21T04:19:51.538Z,-0.41
2018-03-21T04:22:17.808Z,-0.43
2018-03-21T04:24:44.068Z,-0.49
2018-03-21T04:27:10.300Z,-0.49
2018-03-21T04:29:36.588Z,-0.50
2018-03-21T04:32:02.848Z,-0.56
2018-03-21T04:34:29.084Z,-0.57
2018-03-21T04:36:55.332Z,-0.48
2018-03-21T04:39:21.576Z,-0.36
2018-03-21T04:41:47.852Z,-0.31
2018-03-21T04:44:14.096Z,-0.33
2018-03-21T04:46:40.379Z,-0.29
2018-03-21T04:49:06.667Z,-0.27
2018-03-21T04:51:32.904Z,-0.30
2018-03-21T04:53:59.167Z,-0.45
2018-03-21T04:56:25.403Z,-0.54
2018-03-21T04:58:51.676Z,-0.58
2018-03-21T05:01:17.920Z,-0.64
2018-03-21T05:03:44.195Z,-0.77
2018-03-21T05:06:10.487Z,-0.86
2018-03-21T05:08:36.720Z,-0.81
2018-03-21T05:11:02.985Z,-0.84
2018-03-21T05:13:29.236Z,-0.83
2018-03-21T05:15:55.468Z,-0.84
2018-03-21T05:18:21.748Z,-0.80
2018-03-21T05:20:47.979Z,-0.82
2018-03-21T05:23:14.208Z,-0.77
2018-03-21T05:25:40.455Z,-0.75
2018-03-21T05:28:06.696Z,-0.74
2018-03-21T05:30:32.952Z,-0.72
2018-03-21T05:32:59.196Z,-0.72
2018-03-21T05:35:25.421Z,-0.78
2018-03-21T05:37:51.668Z,-0.83
2018-03-21T05:40:17.916Z,-0.83
2018-03-21T05:42:44.185Z,-0.87
2018-03-21T05:45:10.435Z,-0.87
2018-03-21T05:47:36.668Z,-0.80
2018-03-21T05:50:02.972Z,-0.79
2018-03-21T05:52:29.204Z,-0.74
2018-03-21T05:54:56.615Z,-0.72
2018-03-21T05:57:22.851Z,-0.71
2018-03-21T05:59:49.128Z,-0.73
2018-03-21T06:02:15.386Z,-0.69
2018-03-21T06:04:41.612Z,-0.68
2018-03-21T06:07:07.864Z,-0.66
2018-03-21T06:09:34.098Z,-0.63
2018-03-21T06:12:00.329Z,-0.53
2018-03-21T06:14:26.575Z,-0.50
2018-03-21T06:16:52.808Z,-0.45
2018-03-21T06:19:19.068Z,-0.40
2018-03-21T06:21:45.296Z,-0.30
2018-03-21T06:24:11.532Z,-0.22
2018-03-21T06:26:37.800Z,-0.13
2018-03-21T06:29:04.036Z,-0.03
2018-03-21T06:31:30.301Z,0.10
2018-03-21T06:33:56.567Z,0.20
2018-03-21T06:36:22.799Z,0.25
2018-03-21T06:38:49.094Z,0.25
2018-03-21T06:41:15.325Z,0.31
2018-03-21T06:43:41.576Z,0.37
2018-03-21T06:46:07.872Z,0.48
2018-03-21T06:48:34.113Z,0.45
2018-03-21T06:51:00.351Z,0.52
2018-03-21T06:53:26.612Z,0.55
2018-03-21T06:55:52.843Z,0.68
2018-03-21T06:58:19.076Z,0.79
2018-03-21T07:00:45.339Z,0.86
2018-03-21T07:03:11.564Z,0.88
2018-03-21T07:05:37.809Z,0.91
2018-03-21T07:08:04.091Z,0.99
2018-03-21T07:10:30.346Z,1.01
2018-03-21T07:12:56.592Z,1.19
2018-03-21T07:15:38.092Z,1.46
2018-03-21T07:18:05.160Z,1.71
2018-03-21T07:20:31.959Z,1.76
2018-03-21T07:23:01.166Z,1.77
2018-03-21T07:25:29.633Z,1.89
2018-03-21T07:27:55.936Z,1.80
2018-03-21T07:30:22.227Z,1.76
2018-03-21T07:32:48.496Z,1.84
2018-03-21T07:35:14.752Z,1.98
2018-03-21T07:37:41.036Z,1.94
2018-03-21T07:40:07.272Z,2.29
2018-03-21T07:42:33.536Z,2.85
2018-03-21T07:44:59.805Z,2.98
2018-03-21T07:47:26.067Z,3.12
2018-03-21T07:49:52.311Z,3.27
2018-03-21T07:52:18.580Z,3.08
2018-03-21T07:54:44.817Z,2.74
2018-03-21T07:57:11.040Z,2.68
2018-03-21T07:59:37.300Z,2.78
2018-03-21T08:02:03.545Z,4.46
2018-03-21T08:04:31.858Z,5.20
2018-03-21T08:06:58.134Z,4.80
2018-03-21T08:09:24.579Z,4.70
2018-03-21T08:11:50.844Z,4.36
2018-03-21T08:14:17.351Z,5.46
2018-03-21T08:16:43.668Z,6.39
2018-03-21T08:19:10.026Z,7.28
2018-03-21T08:21:36.410Z,8.55
2018-03-21T08:24:02.736Z,10.17
2018-03-21T08:26:29.720Z,11.64
2018-03-21T08:28:55.962Z,12.77
2018-03-21T08:31:22.300Z,12.05
2018-03-21T08:33:48.587Z,13.15
2018-03-21T08:36:14.945Z,13.98
2018-03-21T08:38:41.308Z,14.54
2018-03-21T08:41:07.600Z,15.20
2018-03-21T08:43:34.108Z,13.50
2018-03-21T08:46:00.371Z,13.60
2018-03-21T08:48:26.867Z,13.50
2018-03-21T08:50:53.402Z,14.14
2018-03-21T08:53:19.813Z,14.54
2018-03-21T08:55:46.160Z,15.25
2018-03-21T08:58:12.440Z,15.79
2018-03-21T09:00:38.827Z,16.08
2018-03-21T09:03:05.068Z,15.45
2018-03-21T09:05:31.650Z,15.49
2018-03-21T09:07:57.991Z,15.91
2018-03-21T09:10:24.231Z,16.74
2018-03-21T09:12:50.775Z,16.74
2018-03-21T09:15:17.025Z,17.05
2018-03-21T09:17:43.402Z,16.10
2018-03-21T09:20:09.889Z,15.75
2018-03-21T09:22:36.174Z,15.52
2018-03-21T09:25:02.680Z,15.76
2018-03-21T09:27:28.937Z,15.93
2018-03-21T09:29:55.381Z,15.81
2018-03-21T09:32:21.637Z,15.68
2018-03-21T09:34:48.036Z,16.04
2018-03-21T09:37:14.335Z,15.65
2018-03-21T09:39:40.613Z,15.68
2018-03-21T09:42:06.978Z,14.59
2018-03-21T09:44:33.261Z,12.48
2018-03-21T09:46:59.654Z,11.16
2018-03-21T09:49:26.135Z,11.53
2018-03-21T09:51:52.757Z,12.06
2018-03-21T09:54:19.006Z,13.35
2018-03-21T09:56:45.323Z,14.21
2018-03-21T09:59:11.549Z,14.84
2018-03-21T10:01:37.828Z,15.01
2018-03-21T10:04:04.174Z,15.51
2018-03-21T10:06:30.552Z,15.81
2018-03-21T10:08:56.992Z,16.90
2018-03-21T10:16:49.124Z,15.31
2018-03-21T10:19:17.656Z,16.14
2018-03-21T10:21:43.942Z,15.07
2018-03-21T10:24:10.233Z,15.76
2018-03-21T10:26:36.469Z,15.65
2018-03-21T10:29:02.956Z,16.25
2018-03-21T10:31:29.237Z,16.59
2018-03-21T10:33:55.761Z,16.91
2018-03-21T10:36:22.043Z,17.16
2018-03-21T10:38:48.427Z,17.72
2018-03-21T10:41:14.698Z,18.41
2018-03-21T10:43:40.990Z,19.03
2018-03-21T10:46:07.503Z,19.43
2018-03-21T10:48:33.773Z,18.74
2018-03-21T10:51:00.045Z,17.26
2018-03-21T10:53:26.350Z,16.36
2018-03-21T10:55:52.569Z,18.01
2018-03-21T10:58:19.397Z,18.62
2018-03-21T11:00:45.638Z,18.92
2018-03-21T11:03:11.905Z,20.01
2018-03-21T11:05:38.211Z,19.41
2018-03-21T11:08:04.775Z,16.96
2018-03-21T11:10:31.061Z,15.57
2018-03-21T11:12:57.870Z,16.23
2018-03-21T11:15:24.150Z,17.38
2018-03-21T11:17:50.444Z,18.45
2018-03-21T11:20:16.853Z,19.94
2018-03-21T11:22:43.097Z,18.98
2018-03-21T11:25:09.399Z,16.56
2018-03-21T11:27:35.736Z,14.47
2018-03-21T11:30:01.961Z,13.00
2018-03-21T11:32:28.236Z,12.91
2018-03-21T11:34:54.479Z,15.51
2018-03-21T11:37:21.798Z,14.10
2018-03-21T11:39:48.051Z,12.28
2018-03-21T11:42:14.305Z,11.23
2018-03-21T11:44:40.594Z,10.98
2018-03-21T11:47:06.845Z,10.56
2018-03-21T11:49:33.121Z,9.97
2018-03-21T11:51:59.356Z,9.52
2018-03-21T11:54:25.601Z,9.32
2018-03-21T11:56:51.868Z,9.28
2018-03-21T11:59:18.116Z,9.47
2018-03-21T12:01:44.396Z,10.71
2018-03-21T12:04:10.930Z,12.37
2018-03-21T12:06:37.281Z,15.59
2018-03-21T12:09:03.616Z,17.06
2018-03-21T12:11:29.928Z,18.02
2018-03-21T12:13:56.204Z,16.89
2018-03-21T12:16:27.339Z,14.34
2018-03-21T12:18:53.616Z,13.72
2018-03-21T12:21:19.929Z,13.19
2018-03-21T12:23:46.189Z,13.80
2018-03-21T12:26:12.447Z,12.97
2018-03-21T12:28:38.736Z,11.47
2018-03-21T12:31:04.964Z,10.55
2018-03-21T12:33:31.232Z,10.97
2018-03-21T12:35:57.568Z,15.28
2018-03-21T12:38:23.908Z,17.92
2018-03-21T12:40:50.268Z,19.57
2018-03-21T12:43:16.529Z,20.83
2018-03-21T12:45:42.941Z,22.04
2018-03-21T12:48:09.317Z,22.46
2018-03-21T12:50:35.654Z,23.28
2018-03-21T12:53:01.948Z,23.74
2018-03-21T12:55:28.198Z,23.73
2018-03-21T12:57:54.485Z,24.12
2018-03-21T13:00:20.744Z,23.06
2018-03-21T13:02:47.085Z,19.18
2018-03-21T13:05:13.389Z,16.79
2018-03-21T13:07:39.728Z,18.07
2018-03-21T13:10:06.010Z,19.85
2018-03-21T13:12:32.263Z,21.84
2018-03-21T13:14:58.625Z,22.53
2018-03-21T13:17:25.109Z,22.84
2018-03-21T13:19:51.362Z,18.91
2018-03-21T13:22:17.788Z,16.39
2018-03-21T13:24:44.038Z,14.75
2018-03-21T13:27:10.280Z,13.77
2018-03-21T13:29:36.559Z,16.20
2018-03-21T13:32:02.863Z,16.95
2018-03-21T13:34:29.137Z,15.12
2018-03-21T13:36:55.417Z,13.65
2018-03-21T13:39:21.665Z,12.56
2018-03-21T13:41:47.925Z,11.97
2018-03-21T13:44:14.269Z,11.47
2018-03-21T13:46:40.552Z,14.71
2018-03-21T13:49:06.815Z,17.85
2018-03-21T13:51:33.053Z,19.80
2018-03-21T13:53:59.316Z,20.40
2018-03-21T13:56:25.579Z,19.77
2018-03-21T13:58:51.848Z,19.38
2018-03-21T14:01:18.080Z,17.26
2018-03-21T14:03:44.314Z,17.43
2018-03-21T14:06:10.573Z,19.71
2018-03-21T14:08:36.856Z,21.00
2018-03-21T14:11:03.145Z,21.76
2018-03-21T14:13:29.521Z,21.85
2018-03-21T14:15:55.768Z,22.00
2018-03-21T14:18:22.077Z,22.40
2018-03-21T14:20:48.345Z,22.05
2018-03-21T14:23:14.649Z,21.58
2018-03-21T14:25:40.914Z,21.73
2018-03-21T14:28:07.180Z,21.38
2018-03-21T14:30:33.537Z,21.11
2018-03-21T14:33:00.166Z,21.70
2018-03-21T14:35:26.638Z,21.88
2018-03-21T14:37:53.905Z,21.52
2018-03-21T14:40:20.452Z,21.80
2018-03-21T14:42:46.811Z,21.83
2018-03-21T14:45:13.168Z,21.05
2018-03-21T14:47:39.579Z,20.98
2018-03-21T14:50:06.002Z,19.81
2018-03-21T14:52:32.448Z,19.37
2018-03-21T14:54:59.013Z,19.24
2018-03-21T14:57:25.572Z,18.37
2018-03-21T14:59:51.928Z,17.99
2018-03-21T15:02:18.376Z,17.54
2018-03-21T15:04:44.812Z,17.59
2018-03-21T15:07:11.197Z,17.29
2018-03-21T15:09:37.466Z,16.76
2018-03-21T15:12:03.772Z,15.99
2018-03-21T15:14:30.376Z,15.47
2018-03-21T15:16:56.728Z,14.95
2018-03-21T15:19:23.112Z,14.93
2018-03-21T15:21:49.356Z,14.59
2018-03-21T15:24:15.965Z,14.66
2018-03-21T15:26:42.292Z,15.04
2018-03-21T15:29:08.937Z,15.44
2018-03-21T15:31:35.253Z,16.07
2018-03-21T15:34:01.578Z,16.58
2018-03-21T15:36:28.058Z,17.44
2018-03-21T15:38:54.505Z,17.81
2018-03-21T15:41:20.894Z,18.05
2018-03-21T15:43:47.228Z,18.24
2018-03-21T15:46:13.731Z,18.09
2018-03-21T15:48:40.078Z,17.98
2018-03-21T15:51:06.426Z,17.80
2018-03-21T15:53:32.681Z,17.22
2018-03-21T15:55:59.302Z,16.16
2018-03-21T15:58:25.941Z,15.90
2018-03-21T16:00:52.347Z,14.57
2018-03-21T16:03:18.865Z,13.85
2018-03-21T16:05:45.432Z,12.19
2018-03-21T16:08:11.812Z,11.59
2018-03-21T16:10:38.385Z,10.93
2018-03-21T16:13:04.868Z,9.82
2018-03-21T16:15:31.137Z,8.87
2018-03-21T16:17:57.392Z,8.17
2018-03-21T16:20:23.624Z,7.90
2018-03-21T16:22:49.932Z,7.36
2018-03-21T16:25:16.173Z,7.34
2018-03-21T16:27:43.233Z,7.07
2018-03-21T16:30:09.533Z,6.79
2018-03-21T16:32:35.782Z,6.61
2018-03-21T16:35:02.079Z,6.81
2018-03-21T16:37:28.367Z,6.60
2018-03-21T16:39:54.595Z,6.48
2018-03-21T16:42:20.874Z,6.21
2018-03-21T16:50:31.868Z,5.44
2018-03-21T16:53:08.221Z,5.21
2018-03-21T16:55:34.498Z,4.83
2018-03-21T16:58:00.730Z,4.96
2018-03-21T17:00:27.261Z,4.99
2018-03-21T17:02:53.622Z,4.95
2018-03-21T17:05:19.920Z,4.74
2018-03-21T17:07:46.189Z,4.63
2018-03-21T17:10:12.480Z,4.53
2018-03-21T17:12:39.075Z,4.47
2018-03-21T17:15:05.576Z,4.38
2018-03-21T17:17:32.311Z,4.29
2018-03-21T17:19:58.945Z,4.21
2018-03-21T17:22:25.363Z,4.24
2018-03-21T17:24:52.057Z,4.18
2018-03-21T17:27:18.574Z,4.16
2018-03-21T17:29:44.991Z,4.10
2018-03-21T17:32:11.245Z,4.11
2018-03-21T17:34:37.523Z,3.96
2018-03-21T17:37:03.773Z,3.93
2018-03-21T17:39:30.072Z,3.89
2018-03-21T17:41:56.344Z,3.86
2018-03-21T17:44:22.633Z,3.82
2018-03-21T17:46:48.921Z,3.80
2018-03-21T17:49:15.194Z,3.91
2018-03-21T17:51:41.514Z,3.88
2018-03-21T17:54:07.764Z,3.89
2018-03-21T17:56:34.049Z,3.83
2018-03-21T17:59:00.301Z,3.81
2018-03-21T18:01:26.609Z,3.86
2018-03-21T18:03:52.952Z,3.92
2018-03-21T18:06:19.279Z,3.92
2018-03-21T18:08:45.606Z,4.02
2018-03-21T18:11:11.902Z,4.03
2018-03-21T18:13:38.189Z,4.04
2018-03-21T18:16:04.465Z,4.02
2018-03-21T18:18:30.747Z,3.98
2018-03-21T18:20:57.056Z,4.02
2018-03-21T18:23:23.460Z,4.06
2018-03-21T18:25:49.725Z,3.97
2018-03-21T18:28:15.960Z,3.88
2018-03-21T18:30:42.288Z,3.82
2018-03-21T18:33:08.576Z,3.69
2018-03-21T18:35:34.948Z,3.60
2018-03-21T18:38:01.201Z,3.57
2018-03-21T18:40:27.485Z,3.58
2018-03-21T18:42:53.740Z,3.55
2018-03-21T18:45:20.037Z,3.64
2018-03-21T18:47:46.776Z,3.66
2018-03-21T18:50:13.091Z,3.62
2018-03-21T18:52:39.391Z,3.52
2018-03-21T18:55:05.664Z,3.46
2018-03-21T18:57:31.937Z,3.35
2018-03-21T18:59:58.177Z,3.36
2018-03-21T19:02:24.477Z,3.33
2018-03-21T19:04:50.733Z,3.23
2018-03-21T19:07:17.027Z,3.25
2018-03-21T19:09:43.301Z,3.23
2018-03-21T19:12:09.553Z,3.24
2018-03-21T19:14:35.929Z,3.09
2018-03-21T19:17:02.186Z,3.08
2018-03-21T19:19:28.494Z,3.21
2018-03-21T19:21:54.744Z,3.10
2018-03-21T19:24:21.029Z,3.03
2018-03-21T19:26:47.301Z,3.02
2018-03-21T19:29:13.596Z,3.05
2018-03-21T19:31:40.930Z,3.04
2018-03-21T19:34:07.204Z,3.02
2018-03-21T19:36:33.471Z,3.03
2018-03-21T19:38:59.717Z,3.03
2018-03-21T19:41:25.992Z,2.98
2018-03-21T19:43:52.253Z,2.94
2018-03-21T19:46:18.566Z,2.86
2018-03-21T19:48:44.837Z,2.76
2018-03-21T19:51:11.128Z,2.75
2018-03-21T19:56:40.254Z,2.71
2018-03-21T19:59:06.564Z,2.74
2018-03-21T20:01:32.878Z,2.70
2018-03-21T20:03:59.236Z,2.64
2018-03-21T20:06:25.522Z,2.64
2018-03-21T20:08:51.808Z,2.63
2018-03-21T20:11:18.119Z,2.62
2018-03-21T20:13:44.561Z,2.55
2018-03-21T20:16:10.976Z,2.40
2018-03-21T20:18:37.334Z,2.32
2018-03-21T20:21:03.680Z,2.37
2018-03-21T20:23:29.974Z,2.49
2018-03-21T20:25:56.317Z,2.47
2018-03-21T20:28:22.610Z,2.44
2018-03-21T20:30:48.911Z,2.49
2018-03-21T20:33:15.306Z,2.44
2018-03-21T20:35:41.680Z,2.43
2018-03-21T20:40:41.071Z,2.48
2018-03-21T20:43:07.448Z,2.48
2018-03-21T20:45:33.727Z,2.51
2018-03-21T20:48:00.642Z,2.62
2018-03-21T20:50:27.053Z,2.62
2018-03-21T20:52:53.381Z,2.65
2018-03-21T20:55:19.706Z,2.61
2018-03-21T20:57:46.010Z,2.60
2018-03-21T21:00:12.365Z,2.64
2018-03-21T21:02:38.623Z,2.64
2018-03-21T21:05:04.950Z,2.64
2018-03-21T21:07:31.224Z,2.63
2018-03-21T21:09:57.481Z,2.56
2018-03-21T21:12:23.768Z,2.55
2018-03-21T21:14:50.045Z,2.50
2018-03-21T21:17:16.350Z,2.47
2018-03-21T21:19:42.640Z,2.52
2018-03-21T21:22:08.933Z,2.52
2018-03-21T21:24:35.297Z,2.48
2018-03-21T21:27:01.683Z,2.47
2018-03-21T21:29:27.927Z,2.34
2018-03-21T21:31:54.345Z,2.41
2018-03-21T21:34:20.653Z,2.44
2018-03-21T21:36:46.959Z,2.44
2018-03-21T21:39:13.443Z,2.38
2018-03-21T21:41:39.693Z,2.35
2018-03-21T21:44:06.333Z,2.29
2018-03-21T21:46:32.681Z,2.29
2018-03-21T21:48:59.012Z,2.25
2018-03-21T21:51:25.408Z,2.20
2018-03-21T21:53:51.677Z,2.24
2018-03-21T21:56:18.349Z,2.23
2018-03-21T21:58:44.714Z,2.17
2018-03-21T22:01:11.077Z,2.24
2018-03-21T22:03:37.404Z,2.25
2018-03-21T22:06:03.701Z,2.29
2018-03-21T22:08:30.123Z,2.29
2018-03-21T22:10:56.393Z,2.36
2018-03-21T22:13:22.689Z,2.36
2018-03-21T22:15:49.149Z,2.24
2018-03-21T22:18:15.433Z,2.20
2018-03-21T22:20:41.918Z,2.15
2018-03-21T22:23:08.209Z,2.15
2018-03-21T22:25:34.487Z,2.20
2018-03-21T22:28:00.747Z,2.16
2018-03-21T22:30:27.024Z,2.25
2018-03-21T22:32:53.288Z,2.31
2018-03-21T22:35:20.067Z,2.33
2018-03-21T22:37:46.361Z,2.36
2018-03-21T22:40:12.636Z,2.36
2018-03-21T22:42:38.889Z,2.45
2018-03-21T22:45:05.175Z,2.38
2018-03-21T22:47:31.451Z,2.32
2018-03-21T22:49:57.697Z,2.35
2018-03-21T22:52:24.129Z,2.38
2018-03-21T22:54:50.440Z,2.32
2018-03-21T22:57:16.812Z,2.34
2018-03-21T22:59:43.097Z,2.37
2018-03-21T23:02:09.364Z,2.37
2018-03-21T23:04:35.622Z,2.36
2018-03-21T23:07:02.173Z,2.41
2018-03-21T23:09:28.423Z,2.47
2018-03-21T23:11:54.687Z,2.52
2018-03-21T23:14:21.056Z,2.61
2018-03-21T23:16:47.339Z,2.69
2018-03-21T23:19:13.633Z,2.76
2018-03-21T23:21:40.022Z,2.68
2018-03-21T23:24:06.425Z,2.71
2018-03-21T23:26:32.688Z,2.70
2018-03-21T23:28:59.329Z,2.74
2018-03-21T23:31:25.590Z,2.88
2018-03-21T23:33:51.961Z,2.93
2018-03-21T23:36:18.434Z,2.93
2018-03-21T23:38:44.660Z,2.89
2018-03-21T23:41:11.293Z,2.78
2018-03-21T23:43:37.575Z,2.86
2018-03-21T23:46:03.952Z,2.82
2018-03-21T23:48:30.365Z,2.89
2018-03-21T23:50:56.688Z,2.87
2018-03-21T23:53:23.281Z,2.79
2018-03-21T23:55:49.564Z,2.82
2018-03-21T23:58:15.977Z,2.92
